Time;durP1;ratioP1;P1;durP2;ratioP2;P2;SDS_P1;SDS_P2;PMS_P1;PMS_P2;Temp;Humidity;BMP_temperature;BMP_pressure;BME280_temperature;BME280_humidity;BME280_pressure;Samples;Min_cycle;Max_cycle;Signal;HPM_P1;HPM_P2
2023/12/15 00:04:17;;;;;;;20.90;12.70;;;;;;;6.13;72.47;99389.78;231944;203;150180;-54
2023/12/15 00:09:23;;;;;;;23.70;13.30;;;;;;;6.07;72.09;99396.70;232582;196;136885;-56
2023/12/15 00:14:26;;;;;;;21.30;11.30;;;;;;;6.01;71.74;99399.92;232248;204;136991;-59
2023/12/15 00:19:29;;;;;;;18.80;11.50;;;;;;;5.96;71.60;99408.23;232133;204;149870;-62
2023/12/15 00:24:33;;;;;;;21.00;11.50;;;;;;;5.89;71.50;99421.63;232440;204;136270;-56
2023/12/15 00:29:36;;;;;;;20.70;11.90;;;;;;;5.85;71.68;99422.32;231687;201;136590;-57
2023/12/15 00:34:39;;;;;;;19.60;11.50;;;;;;;5.87;71.88;99429.11;231778;204;150514;-55
2023/12/15 00:39:42;;;;;;;21.20;13.10;;;;;;;5.92;71.67;99441.26;230928;204;137068;-57
2023/12/15 00:44:46;;;;;;;20.90;12.60;;;;;;;5.95;71.70;99456.67;231995;204;137248;-55
2023/12/15 00:49:49;;;;;;;19.50;12.20;;;;;;;5.99;71.68;99470.98;232273;200;150466;-56
2023/12/15 00:54:52;;;;;;;22.80;13.50;;;;;;;6.01;71.57;99478.14;231367;204;138863;-55
2023/12/15 00:59:56;;;;;;;23.60;13.20;;;;;;;5.95;71.77;99494.36;232430;204;137248;-57
2023/12/15 01:04:59;;;;;;;20.60;12.20;;;;;;;5.94;71.57;99505.48;232356;197;150325;-55
2023/12/15 01:10:03;;;;;;;21.70;12.90;;;;;;;5.88;71.31;99511.66;231995;204;136775;-56
2023/12/15 01:15:07;;;;;;;21.90;12.70;;;;;;;5.82;71.47;99519.98;232434;204;136684;-54
2023/12/15 01:20:11;;;;;;;20.50;12.10;;;;;;;5.82;71.75;99526.31;231189;201;149688;-54
2023/12/15 01:25:14;;;;;;;18.70;11.50;;;;;;;5.79;72.10;99537.13;232198;201;137293;-56
2023/12/15 01:30:18;;;;;;;17.80;10.50;;;;;;;5.77;71.95;99542.16;232196;204;137213;-55
2023/12/15 01:35:21;;;;;;;17.90;10.70;;;;;;;5.75;72.13;99544.16;232109;204;151501;-54
2023/12/15 01:40:25;;;;;;;18.80;12.20;;;;;;;5.76;72.07;99554.66;231751;204;137580;-56
2023/12/15 01:45:28;;;;;;;19.20;11.60;;;;;;;5.79;71.81;99564.11;231361;201;136790;-57
2023/12/15 01:50:31;;;;;;;21.50;12.00;;;;;;;5.78;71.52;99569.06;232197;200;149492;-56
2023/12/15 01:55:34;;;;;;;21.80;13.00;;;;;;;5.71;70.87;99578.09;231811;203;136763;-56
2023/12/15 02:00:37;;;;;;;19.30;12.30;;;;;;;5.60;70.74;99576.17;232352;204;137011;-55
2023/12/15 02:05:41;;;;;;;20.60;12.60;;;;;;;5.46;70.84;99584.89;232516;200;150238;-56
2023/12/15 02:10:44;;;;;;;21.80;12.30;;;;;;;5.29;70.96;99594.06;232560;203;136335;-57
2023/12/15 02:15:48;;;;;;;23.10;12.90;;;;;;;5.15;71.26;99598.90;232220;204;137173;-56
2023/12/15 02:20:51;;;;;;;21.90;12.20;;;;;;;5.06;71.73;99609.02;232210;204;151319;-59
2023/12/15 02:25:54;;;;;;;24.60;13.10;;;;;;;4.96;71.94;99617.94;231640;204;136715;-58
2023/12/15 02:30:57;;;;;;;21.10;11.10;;;;;;;4.95;72.12;99623.40;231562;203;138562;-55
2023/12/15 02:36:01;;;;;;;22.70;12.80;;;;;;;4.94;72.38;99633.48;232457;197;149461;-55
2023/12/15 02:41:04;;;;;;;22.40;12.80;;;;;;;5.02;72.35;99643.26;231672;204;136861;-56
2023/12/15 02:46:08;;;;;;;20.80;13.00;;;;;;;5.04;72.11;99656.20;232572;200;136641;-55
2023/12/15 02:51:11;;;;;;;18.60;12.20;;;;;;;5.13;71.95;99664.20;231669;204;149748;-56
2023/12/15 02:56:14;;;;;;;17.80;11.40;;;;;;;5.17;71.67;99673.76;232093;204;136313;-57
2023/12/15 03:01:18;;;;;;;18.20;11.70;;;;;;;5.15;71.62;99685.43;232107;203;137820;-56
2023/12/15 03:06:21;;;;;;;18.10;11.30;;;;;;;5.06;71.61;99699.77;232370;200;150236;-56
2023/12/15 03:11:25;;;;;;;17.10;10.50;;;;;;;4.98;71.72;99704.92;232463;200;137764;-55
2023/12/15 03:16:28;;;;;;;19.10;11.40;;;;;;;4.91;71.76;99714.08;232500;200;137202;-55
2023/12/15 03:21:31;;;;;;;15.50;10.60;;;;;;;4.91;71.71;99728.69;232583;203;149592;-56
2023/12/15 03:26:34;;;;;;;19.10;11.10;;;;;;;4.90;71.40;99739.98;232319;203;136600;-57
2023/12/15 03:31:41;;;;;;;15.50;9.80;;;;;;;4.86;71.09;99743.05;232459;204;136966;-57
2023/12/15 03:36:44;;;;;;;14.00;9.90;;;;;;;4.88;71.07;99755.84;232482;203;149447;-57
2023/12/15 03:41:47;;;;;;;17.90;10.90;;;;;;;4.94;70.70;99757.60;232373;197;136855;-57
2023/12/15 03:46:51;;;;;;;15.70;11.00;;;;;;;4.86;70.19;99764.68;232527;200;138178;-57
2023/12/15 03:51:54;;;;;;;14.20;9.60;;;;;;;4.70;70.20;99772.83;232156;200;149358;-57
2023/12/15 03:56:58;;;;;;;13.70;10.10;;;;;;;4.61;70.26;99785.75;232589;200;137043;-55
2023/12/15 04:02:01;;;;;;;15.40;10.40;;;;;;;4.57;70.24;99794.98;232200;203;136816;-57
2023/12/15 04:07:04;;;;;;;12.90;9.40;;;;;;;4.56;69.81;99808.54;232491;200;150636;-57
2023/12/15 04:12:08;;;;;;;14.90;9.40;;;;;;;4.60;69.59;99813.00;231848;204;136678;-57
2023/12/15 04:17:11;;;;;;;13.90;9.00;;;;;;;4.51;69.09;99824.45;232413;200;136223;-58
2023/12/15 04:22:14;;;;;;;11.10;8.50;;;;;;;4.50;68.72;99834.30;232473;200;149721;-57
2023/12/15 04:27:18;;;;;;;9.80;7.70;;;;;;;4.46;68.41;99846.89;232341;204;136214;-58
2023/12/15 04:32:21;;;;;;;10.70;7.90;;;;;;;4.45;68.10;99854.30;232300;204;136905;-57
2023/12/15 04:37:24;;;;;;;10.00;7.10;;;;;;;4.44;67.54;99859.42;231802;204;149463;-56
2023/12/15 04:42:28;;;;;;;9.10;7.60;;;;;;;4.38;67.49;99863.42;232475;204;136995;-57
2023/12/15 04:47:31;;;;;;;10.20;6.80;;;;;;;4.33;67.39;99868.81;232502;204;136736;-61
2023/12/15 04:52:35;;;;;;;9.30;7.20;;;;;;;4.24;67.31;99875.17;232244;204;149682;-56
2023/12/15 04:57:38;;;;;;;10.60;7.40;;;;;;;4.23;67.30;99888.01;232122;204;136851;-56
2023/12/15 05:02:41;;;;;;;10.30;7.00;;;;;;;4.21;67.05;99905.44;232211;200;136874;-55
2023/12/15 05:07:46;;;;;;;8.40;6.20;;;;;;;4.22;66.92;99916.50;232498;203;151892;-55
2023/12/15 05:12:49;;;;;;;9.30;6.60;;;;;;;4.25;66.64;99926.09;232279;204;137721;-57
2023/12/15 05:17:52;;;;;;;9.20;7.00;;;;;;;4.33;66.26;99940.30;231811;197;137037;-56
2023/12/15 05:22:56;;;;;;;9.20;7.10;;;;;;;4.45;66.08;99949.36;232451;203;151267;-56
2023/12/15 05:27:59;;;;;;;9.00;7.20;;;;;;;4.49;65.22;99956.48;232142;197;136823;-55
2023/12/15 05:33:03;;;;;;;8.90;7.20;;;;;;;4.48;65.17;99969.67;232477;200;136672;-55
2023/12/15 05:38:06;;;;;;;11.70;7.90;;;;;;;4.44;64.90;99982.76;232441;196;151979;-57
2023/12/15 05:43:10;;;;;;;11.00;8.30;;;;;;;4.41;64.77;99989.86;232452;203;140298;-57
2023/12/15 05:48:13;;;;;;;10.50;7.80;;;;;;;4.39;64.66;99998.84;232383;201;137382;-54
2023/12/15 05:53:17;;;;;;;10.90;8.00;;;;;;;4.35;64.85;100009.48;232368;204;249380;-57
2023/12/15 05:58:20;;;;;;;10.00;8.00;;;;;;;4.32;64.95;100018.50;231899;201;136893;-56
2023/12/15 06:03:23;;;;;;;10.50;8.20;;;;;;;4.29;64.99;100029.63;232453;200;137500;-56
2023/12/15 06:08:27;;;;;;;9.70;7.40;;;;;;;4.28;64.80;100040.70;232145;197;151319;-55
2023/12/15 06:13:31;;;;;;;145.10;109.70;;;;;;;4.23;65.80;100049.24;232381;196;136323;-55
2023/12/15 06:18:35;;;;;;;19.80;13.50;;;;;;;4.35;65.29;100056.21;232388;200;139946;-56
2023/12/15 06:23:38;;;;;;;36.60;27.00;;;;;;;4.36;64.71;100067.09;232250;204;152595;-57
2023/12/15 06:28:41;;;;;;;12.90;9.50;;;;;;;4.32;65.28;100075.24;232058;200;138070;-54
2023/12/15 06:33:45;;;;;;;11.40;8.30;;;;;;;4.40;64.73;100082.46;231424;204;138057;-56
2023/12/15 06:38:48;;;;;;;11.80;8.50;;;;;;;4.44;64.39;100089.41;232330;202;152513;-56
2023/12/15 06:43:51;;;;;;;9.60;7.20;;;;;;;4.43;64.30;100094.34;232289;198;136460;-56
2023/12/15 06:48:55;;;;;;;11.70;7.00;;;;;;;4.40;64.05;100106.02;231408;200;136901;-56
2023/12/15 06:53:58;;;;;;;10.80;7.40;;;;;;;4.40;63.99;100109.34;231527;204;152484;-56
2023/12/15 06:59:01;;;;;;;10.80;7.60;;;;;;;4.37;63.97;100112.04;232311;204;137575;-55
2023/12/15 07:04:05;;;;;;;11.30;7.60;;;;;;;4.37;63.93;100125.75;232505;204;137453;-58
2023/12/15 07:09:11;;;;;;;10.30;7.70;;;;;;;4.36;63.96;100141.40;232290;204;151267;-57
2023/12/15 07:14:14;;;;;;;10.80;8.00;;;;;;;4.32;64.38;100153.59;232419;201;137538;-59
2023/12/15 07:19:17;;;;;;;9.90;7.30;;;;;;;4.26;64.68;100166.16;231418;203;136980;-59
2023/12/15 07:24:21;;;;;;;13.70;8.00;;;;;;;4.26;64.97;100173.90;232344;203;152673;-59
2023/12/15 07:29:24;;;;;;;12.20;8.40;;;;;;;4.25;65.01;100182.17;232329;197;136661;-59
2023/12/15 07:34:28;;;;;;;11.80;7.90;;;;;;;4.22;65.14;100188.20;231351;203;137294;-58
2023/12/15 07:39:32;;;;;;;76.30;52.40;;;;;;;4.19;65.55;100198.63;232520;203;151429;-61
2023/12/15 07:44:35;;;;;;;17.40;10.90;;;;;;;4.25;65.84;100203.95;231566;204;137483;-58
2023/12/15 07:49:39;;;;;;;13.80;9.60;;;;;;;4.31;65.44;100204.72;232355;200;137160;-59
2023/12/15 07:54:42;;;;;;;13.00;9.00;;;;;;;4.33;65.35;100208.73;231945;204;151747;-60
2023/12/15 07:59:46;;;;;;;13.80;9.00;;;;;;;4.30;65.36;100208.80;231702;201;137326;-59
2023/12/15 08:04:49;;;;;;;14.20;9.40;;;;;;;4.29;65.31;100222.51;232543;203;137255;-56
2023/12/15 08:09:52;;;;;;;14.80;10.00;;;;;;;4.30;65.38;100219.69;232396;196;152644;-59
2023/12/15 08:14:56;;;;;;;15.70;9.90;;;;;;;4.33;65.28;100218.39;231655;204;137937;-58
2023/12/15 08:19:59;;;;;;;14.90;9.70;;;;;;;4.36;65.14;100228.55;231804;197;137952;-59
2023/12/15 08:25:03;;;;;;;14.80;10.50;;;;;;;4.41;65.17;100232.84;232303;197;151676;-59
2023/12/15 08:30:08;;;;;;;16.90;13.20;;;;;;;4.44;64.65;100246.14;232256;197;136642;-57
2023/12/15 08:35:12;;;;;;;17.50;10.70;;;;;;;4.43;65.40;100268.99;231162;204;136923;-59
2023/12/15 08:40:16;;;;;;;17.30;10.50;;;;;;;4.47;64.87;100284.04;231966;204;151368;-58
2023/12/15 08:45:19;;;;;;;18.20;11.00;;;;;;;4.53;64.81;100289.92;232356;204;137196;-59
2023/12/15 08:50:23;;;;;;;16.00;10.90;;;;;;;4.58;64.79;100301.61;232424;204;136651;-60
2023/12/15 08:55:27;;;;;;;17.80;10.70;;;;;;;4.57;64.73;100311.13;232220;201;151203;-59
2023/12/15 09:00:30;;;;;;;19.70;11.80;;;;;;;4.55;64.99;100323.62;232276;200;137264;-58
2023/12/15 09:05:33;;;;;;;18.20;12.40;;;;;;;4.63;65.01;100326.48;232422;197;138326;-57
2023/12/15 09:10:57;;;;;;;18.10;12.30;;;;;;;4.64;64.78;100328.55;231703;204;151969;-57
2023/12/15 09:16:01;;;;;;;21.50;12.80;;;;;;;4.67;64.69;100338.02;231613;201;138115;-59
2023/12/15 09:21:04;;;;;;;19.10;12.50;;;;;;;4.72;64.58;100341.08;232092;201;137185;-58
2023/12/15 09:26:08;;;;;;;20.10;12.10;;;;;;;4.74;64.54;100344.04;232158;200;155244;-61
2023/12/15 09:31:11;;;;;;;22.00;12.80;;;;;;;4.66;64.80;100340.48;232224;197;137063;-58
2023/12/15 09:36:15;;;;;;;18.00;11.20;;;;;;;4.63;64.55;100346.86;232315;201;138187;-57
2023/12/15 09:41:18;;;;;;;19.00;12.90;;;;;;;4.49;64.44;100359.04;232355;204;153854;-57
2023/12/15 09:46:21;;;;;;;18.40;10.80;;;;;;;4.51;64.34;100361.81;232162;198;137902;-57
2023/12/15 09:51:25;;;;;;;18.20;10.90;;;;;;;4.61;63.76;100354.11;231755;197;137439;-58
2023/12/15 09:56:28;;;;;;;16.80;10.90;;;;;;;4.68;62.88;100351.70;230544;201;151214;-57
2023/12/15 10:01:32;;;;;;;252.70;154.50;;;;;;;4.74;62.56;100350.55;232100;200;137300;-60
2023/12/15 10:06:36;;;;;;;26.40;15.70;;;;;;;4.84;62.74;100352.66;231002;204;138476;-62
2023/12/15 10:11:40;;;;;;;25.30;13.60;;;;;;;4.83;62.42;100351.09;232231;197;151497;-61
2023/12/15 10:16:45;;;;;;;21.20;13.70;;;;;;;4.78;62.99;100351.35;231455;204;137890;-57
2023/12/15 10:21:48;;;;;;;20.40;11.70;;;;;;;4.85;62.16;100354.56;231833;204;137844;-60
2023/12/15 10:26:54;;;;;;;21.60;11.70;;;;;;;4.91;62.03;100355.70;231174;203;151605;-61
2023/12/15 10:31:58;;;;;;;19.30;11.70;;;;;;;4.93;61.76;100362.69;232082;203;137275;-59
2023/12/15 10:37:02;;;;;;;21.40;12.10;;;;;;;4.99;61.35;100365.05;231477;200;136933;-60
2023/12/15 10:42:05;;;;;;;20.00;13.90;;;;;;;5.04;61.35;100361.63;232169;200;152328;-60
2023/12/15 10:47:09;;;;;;;254.40;192.10;;;;;;;5.08;63.75;100366.83;232422;201;137709;-66
2023/12/15 10:52:16;;;;;;;35.30;21.20;;;;;;;5.37;62.69;100374.02;232137;203;138247;-63
2023/12/15 10:57:20;;;;;;;29.00;16.90;;;;;;;5.48;61.44;100374.16;231752;203;151213;-59
2023/12/15 11:02:28;;;;;;;25.70;15.90;;;;;;;5.43;60.99;100375.31;232265;201;136669;-59
2023/12/15 11:07:31;;;;;;;26.30;16.50;;;;;;;5.29;61.01;100372.77;231050;200;137233;-59
2023/12/15 11:12:37;;;;;;;28.70;16.10;;;;;;;5.28;61.22;100381.58;232282;203;151802;-58
2023/12/15 11:17:49;;;;;;;25.50;15.60;;;;;;;5.21;61.06;100383.64;232332;203;136818;-57
2023/12/15 11:22:53;;;;;;;24.60;15.30;;;;;;;5.23;60.76;100389.06;231650;204;137404;-59
2023/12/15 11:28:15;;;;;;;23.90;14.90;;;;;;;5.27;60.38;100388.81;231155;196;151497;-59
2023/12/15 11:33:33;;;;;;;22.90;14.60;;;;;;;5.26;60.36;100389.71;231133;204;137010;-58
2023/12/15 11:38:40;;;;;;;23.30;14.60;;;;;;;5.28;59.79;100393.55;232471;203;137471;-58
2023/12/15 11:43:43;;;;;;;27.00;15.60;;;;;;;5.21;60.29;100397.53;230962;200;152082;-59
2023/12/15 11:48:47;;;;;;;23.50;15.20;;;;;;;5.06;60.70;100401.67;232253;204;136593;-62
2023/12/15 11:53:51;;;;;;;25.70;16.40;;;;;;;5.05;61.00;100404.17;231809;204;137228;-62
2023/12/15 11:58:54;;;;;;;24.50;16.00;;;;;;;5.06;61.17;100408.73;231085;200;151881;-61
2023/12/15 12:03:57;;;;;;;30.90;17.00;;;;;;;5.09;60.95;100414.30;231103;200;137173;-62
2023/12/15 12:09:01;;;;;;;31.40;17.90;;;;;;;5.00;61.82;100418.15;232428;203;137476;-63
2023/12/15 12:14:04;;;;;;;29.00;15.70;;;;;;;4.96;62.59;100427.00;232116;203;152812;-61
2023/12/15 12:19:07;;;;;;;22.00;12.30;;;;;;;4.82;62.82;100434.11;231413;204;137582;-62
2023/12/15 12:24:11;;;;;;;16.50;10.80;;;;;;;4.66;62.72;100434.52;232384;204;138174;-62
2023/12/15 12:29:14;;;;;;;21.90;11.40;;;;;;;4.66;62.99;100433.82;231299;200;152657;-62
2023/12/15 12:34:18;;;;;;;18.30;10.70;;;;;;;4.75;62.41;100442.13;232240;200;137641;-63
2023/12/15 12:39:23;;;;;;;18.00;12.00;;;;;;;4.77;62.04;100445.59;232265;196;136869;-62
2023/12/15 12:44:26;;;;;;;24.60;13.20;;;;;;;4.68;61.93;100442.05;231957;204;152052;-62
2023/12/15 12:49:29;;;;;;;23.50;12.30;;;;;;;4.60;62.54;100448.14;231734;201;137074;-62
2023/12/15 12:54:51;;;;;;;20.50;11.70;;;;;;;4.60;62.73;100455.34;232305;198;136559;-63
2023/12/15 12:59:54;;;;;;;94.20;60.60;;;;;;;4.70;62.68;100457.14;232241;197;152074;-61
2023/12/15 13:04:58;;;;;;;17.50;11.30;;;;;;;4.86;62.52;100461.30;231537;201;137613;-62
2023/12/15 13:10:06;;;;;;;14.40;9.30;;;;;;;4.84;61.98;100463.08;232300;204;136999;-63
2023/12/15 13:15:12;;;;;;;15.30;7.90;;;;;;;4.87;61.64;100473.73;232423;204;151640;-62
2023/12/15 13:20:15;;;;;;;13.50;8.30;;;;;;;4.81;61.60;100487.39;232286;204;140638;-62
2023/12/15 13:25:18;;;;;;;14.30;8.00;;;;;;;4.81;61.36;100492.65;232402;204;137070;-63
2023/12/15 13:30:21;;;;;;;12.90;7.90;;;;;;;4.83;61.05;100493.86;232308;204;152744;-62
2023/12/15 13:35:25;;;;;;;14.00;8.20;;;;;;;4.81;60.96;100491.08;232406;200;136611;-62
2023/12/15 13:40:28;;;;;;;18.60;10.20;;;;;;;4.81;61.00;100489.68;232374;204;137035;-61
2023/12/15 13:45:31;;;;;;;17.60;10.10;;;;;;;4.82;61.20;100492.30;232395;203;151624;-62
2023/12/15 13:50:35;;;;;;;23.10;12.50;;;;;;;4.83;60.88;100492.46;232306;200;136664;-61
2023/12/15 13:55:38;;;;;;;19.70;11.20;;;;;;;4.84;60.87;100495.08;231917;201;137098;-65
2023/12/15 14:00:42;;;;;;;20.50;12.10;;;;;;;4.78;60.88;100498.33;231967;197;151913;-63
2023/12/15 14:05:45;;;;;;;25.10;14.90;;;;;;;4.65;60.69;100495.71;232224;204;138137;-63
2023/12/15 14:10:49;;;;;;;21.70;14.20;;;;;;;4.65;60.91;100497.28;231632;200;139036;-62
2023/12/15 14:15:52;;;;;;;21.30;14.00;;;;;;;4.68;60.89;100504.98;232059;204;152665;-63
2023/12/15 14:20:56;;;;;;;26.30;15.80;;;;;;;4.67;61.08;100514.13;232189;204;138331;-62
2023/12/15 14:26:01;;;;;;;24.60;15.00;;;;;;;4.65;61.01;100521.55;231783;204;137410;-63
2023/12/15 14:31:05;;;;;;;25.90;16.20;;;;;;;4.61;61.46;100523.71;232115;204;152284;-63
2023/12/15 14:36:09;;;;;;;24.70;14.60;;;;;;;4.56;61.61;100528.88;232028;204;137573;-63
2023/12/15 14:41:12;;;;;;;24.80;15.00;;;;;;;4.55;61.79;100525.38;232030;200;138409;-63
2023/12/15 14:46:15;;;;;;;26.50;15.70;;;;;;;4.58;61.86;100530.09;232136;197;152791;-64
2023/12/15 14:51:18;;;;;;;23.00;15.00;;;;;;;4.57;62.14;100534.84;232070;204;137619;-61
2023/12/15 14:56:22;;;;;;;28.60;15.40;;;;;;;4.56;62.24;100538.55;231542;204;137186;-62
2023/12/15 15:01:25;;;;;;;21.40;14.30;;;;;;;4.60;62.22;100539.20;232114;204;151391;-62
2023/12/15 15:06:29;;;;;;;24.10;15.10;;;;;;;4.54;62.43;100544.20;232091;198;136654;-61
2023/12/15 15:11:41;;;;;;;25.80;15.00;;;;;;;4.49;62.61;100556.20;232158;204;137573;-62
2023/12/15 15:16:45;;;;;;;26.50;15.70;;;;;;;4.49;62.84;100555.67;232171;204;152032;-62
2023/12/15 15:21:48;;;;;;;548.60;366.30;;;;;;;4.54;62.94;100563.88;232070;197;137792;-62
2023/12/15 15:26:52;;;;;;;42.50;27.80;;;;;;;4.59;63.41;100560.65;231976;201;137164;-62
2023/12/15 15:31:55;;;;;;;31.20;17.40;;;;;;;4.56;62.79;100565.08;231914;198;151323;-62
2023/12/15 15:36:58;;;;;;;25.80;16.10;;;;;;;4.49;62.95;100576.42;231535;204;137246;-61
2023/12/15 15:42:02;;;;;;;24.40;14.90;;;;;;;4.43;63.10;100577.36;232167;198;137238;-62
2023/12/15 15:47:05;;;;;;;22.20;13.80;;;;;;;4.42;63.09;100574.05;231999;204;151472;-62
2023/12/15 15:52:10;;;;;;;20.10;12.90;;;;;;;4.33;63.13;100571.68;231364;204;137511;-61
2023/12/15 15:57:14;;;;;;;24.50;13.00;;;;;;;4.28;62.93;100577.90;232118;204;138256;-62
2023/12/15 16:02:17;;;;;;;19.40;12.30;;;;;;;4.27;62.93;100588.27;232098;204;152533;-62
2023/12/15 16:07:21;;;;;;;20.50;13.10;;;;;;;4.27;62.91;100592.14;231147;204;137828;-62
2023/12/15 16:12:24;;;;;;;20.70;12.80;;;;;;;4.23;63.01;100598.50;232089;197;137288;-61
2023/12/15 16:17:28;;;;;;;21.90;13.90;;;;;;;4.23;62.95;100603.79;232117;198;152787;-62
2023/12/15 16:22:32;;;;;;;27.00;15.10;;;;;;;4.20;62.90;100611.90;232139;200;137586;-62
2023/12/15 16:27:35;;;;;;;25.00;15.60;;;;;;;4.15;63.16;100615.11;231667;198;137596;-62
2023/12/15 16:32:40;;;;;;;24.60;16.30;;;;;;;4.16;63.28;100622.65;232086;204;151331;-62
2023/12/15 16:37:43;;;;;;;31.40;16.90;;;;;;;4.13;63.34;100631.98;231969;201;138239;-62
2023/12/15 16:42:46;;;;;;;27.80;16.20;;;;;;;4.10;63.46;100637.45;232071;197;136467;-62
2023/12/15 16:47:50;;;;;;;30.30;18.00;;;;;;;4.08;63.59;100644.16;231973;204;151597;-62
2023/12/15 16:52:53;;;;;;;30.60;17.40;;;;;;;4.08;63.84;100657.33;232256;198;136741;-63
2023/12/15 16:57:57;;;;;;;28.00;16.90;;;;;;;4.07;64.01;100660.14;231989;200;136997;-62
2023/12/15 17:03:00;;;;;;;34.40;18.00;;;;;;;4.01;64.16;100659.85;232011;203;153624;-63
2023/12/15 17:08:04;;;;;;;34.30;18.40;;;;;;;3.96;64.27;100667.10;231943;197;140276;-63
2023/12/15 17:13:39;;;;;;;34.60;17.40;;;;;;;3.94;64.65;100678.36;232178;204;136541;-62
2023/12/15 17:18:46;;;;;;;27.60;17.50;;;;;;;3.86;64.89;100683.69;231734;201;152007;-62
2023/12/15 17:23:51;;;;;;;36.50;19.60;;;;;;;3.82;64.94;100683.72;231995;204;137186;-62
2023/12/15 17:28:54;;;;;;;34.80;20.10;;;;;;;3.81;65.13;100686.02;232138;204;137767;-67
2023/12/15 17:33:58;;;;;;;34.00;19.80;;;;;;;3.77;65.15;100694.28;231654;201;152073;-62
2023/12/15 17:39:01;;;;;;;34.00;20.10;;;;;;;3.75;65.28;100699.05;232115;198;136693;-62
2023/12/15 17:44:06;;;;;;;32.20;18.90;;;;;;;3.82;65.37;100698.83;231790;204;137656;-61
2023/12/15 17:49:09;;;;;;;39.00;21.50;;;;;;;3.88;65.16;100693.84;232115;198;151572;-62
2023/12/15 17:54:14;;;;;;;37.10;21.90;;;;;;;3.94;65.17;100690.82;231747;204;137085;-62
2023/12/15 17:59:17;;;;;;;38.40;22.30;;;;;;;3.99;65.01;100692.70;231854;204;137207;-62
2023/12/15 18:04:21;;;;;;;43.70;23.60;;;;;;;3.96;65.05;100703.09;231979;197;152883;-61
2023/12/15 18:14:34;;;;;;;49.00;27.80;;;;;;;4.07;65.96;100694.76;229388;214;707771;-64
2023/12/15 18:19:40;;;;;;;48.00;26.60;;;;;;;4.02;65.17;100696.02;231678;204;136247;-64
2023/12/15 18:24:44;;;;;;;48.00;26.60;;;;;;;4.03;65.32;100690.23;231651;198;137548;-64
2023/12/15 18:29:47;;;;;;;49.40;27.50;;;;;;;4.06;65.19;100684.22;231605;202;148140;-64
2023/12/15 18:34:51;;;;;;;50.00;28.90;;;;;;;4.04;65.42;100692.48;231408;198;136374;-64
2023/12/15 18:39:54;;;;;;;50.80;28.60;;;;;;;3.99;65.49;100697.80;231848;198;137109;-64
2023/12/15 18:44:57;;;;;;;52.80;29.80;;;;;;;3.88;65.59;100698.41;231551;198;147859;-62
2023/12/15 18:50:01;;;;;;;51.80;29.20;;;;;;;3.84;65.94;100701.27;231769;198;137805;-65
2023/12/15 18:55:05;;;;;;;45.70;28.60;;;;;;;3.85;66.01;100708.63;231683;205;136939;-63
2023/12/15 19:00:09;;;;;;;49.10;28.90;;;;;;;3.89;66.08;100720.19;231877;205;147830;-63
2023/12/15 19:05:12;;;;;;;46.90;27.30;;;;;;;3.94;65.76;100727.87;231352;199;136371;-62
2023/12/15 19:10:16;;;;;;;47.20;28.00;;;;;;;3.88;65.86;100733.35;231666;206;137023;-64
2023/12/15 19:15:20;;;;;;;126.50;74.60;;;;;;;3.92;66.55;100742.45;231469;206;149707;-67
2023/12/15 19:20:29;;;;;;;55.80;31.60;;;;;;;3.97;66.34;100754.19;231726;199;136588;-66
2023/12/15 19:25:32;;;;;;;56.70;30.90;;;;;;;3.94;66.05;100756.84;231194;206;136444;-63
2023/12/15 19:30:36;;;;;;;54.60;30.40;;;;;;;3.86;65.99;100767.61;231489;206;150662;-64
2023/12/15 19:35:39;;;;;;;65.40;31.30;;;;;;;3.78;66.19;100779.77;230904;199;137215;-64
2023/12/15 19:40:42;;;;;;;56.00;30.60;;;;;;;3.71;66.39;100786.13;230937;203;136353;-63
2023/12/15 19:45:46;;;;;;;57.30;30.70;;;;;;;3.70;66.59;100790.17;231941;202;150934;-64
2023/12/15 19:50:50;;;;;;;57.30;30.90;;;;;;;3.71;66.61;100778.94;231875;198;136300;-58
2023/12/15 19:55:53;;;;;;;64.80;33.20;;;;;;;3.69;66.57;100772.98;231370;203;136751;-59
2023/12/15 20:00:56;;;;;;;63.20;34.40;;;;;;;3.65;66.63;100771.96;230903;199;151674;-57
2023/12/15 20:05:59;;;;;;;392.20;253.40;;;;;;;3.68;67.41;100767.02;231048;206;137010;-57
2023/12/15 20:11:07;;;;;;;73.00;39.10;;;;;;;3.94;67.82;100763.50;231772;206;137098;-56
2023/12/15 20:16:10;;;;;;;63.50;32.90;;;;;;;4.01;65.72;100760.30;231750;198;149533;-57
2023/12/15 20:21:17;;;;;;;54.80;30.80;;;;;;;3.91;65.33;100763.19;230958;198;137777;-55
2023/12/15 20:26:21;;;;;;;57.70;31.10;;;;;;;3.80;65.53;100775.89;231124;203;137272;-58
2023/12/15 20:31:25;;;;;;;58.80;31.70;;;;;;;3.74;65.70;100774.36;231716;198;149548;-55
2023/12/15 20:36:28;;;;;;;58.50;31.80;;;;;;;3.70;65.50;100772.44;231650;198;137539;-57
2023/12/15 20:41:31;;;;;;;90.50;53.90;;;;;;;3.75;66.37;100773.65;231664;198;136520;-57
2023/12/15 20:47:35;;;;;;;55.60;30.50;;;;;;;4.00;66.22;100769.98;229596;210;733725;-58
2023/12/15 20:52:39;;;;;;;64.10;32.70;;;;;;;3.95;64.95;100771.58;232172;197;136591;-58
2023/12/15 20:57:45;;;;;;;61.40;34.40;;;;;;;3.95;64.46;100774.56;232162;198;136244;-57
2023/12/15 21:02:49;;;;;;;63.40;32.70;;;;;;;3.91;64.60;100781.80;232014;198;147966;-59
2023/12/15 21:07:53;;;;;;;53.00;29.20;;;;;;;3.95;64.18;100780.88;231685;201;141560;-57
2023/12/15 21:12:56;;;;;;;55.00;29.40;;;;;;;3.94;63.78;100777.56;231697;198;137043;-56
2023/12/15 21:17:59;;;;;;;51.10;28.00;;;;;;;3.93;63.58;100771.41;231738;198;147849;-58
2023/12/15 21:23:03;;;;;;;49.40;28.00;;;;;;;3.95;63.67;100768.59;231872;204;139984;-57
2023/12/15 21:28:06;;;;;;;46.20;25.90;;;;;;;3.98;63.30;100757.86;231812;199;137217;-57
2023/12/15 21:33:09;;;;;;;44.90;25.60;;;;;;;3.93;63.25;100748.95;231840;198;147689;-57
2023/12/15 21:38:12;;;;;;;474.90;318.70;;;;;;;3.92;63.37;100749.48;231512;199;136341;-58
2023/12/15 21:43:15;;;;;;;71.50;38.80;;;;;;;4.09;64.44;100755.33;231777;205;136912;-58
2023/12/15 21:48:19;;;;;;;53.10;28.90;;;;;;;4.23;63.10;100750.10;231337;198;150503;-58
2023/12/15 21:53:24;;;;;;;52.50;27.80;;;;;;;4.12;62.71;100746.16;231860;202;136707;-58
2023/12/15 21:58:27;;;;;;;52.70;29.50;;;;;;;3.97;62.84;100758.58;231838;202;136569;-60
2023/12/15 22:03:31;;;;;;;53.60;28.10;;;;;;;3.96;62.88;100761.73;231924;198;150235;-57
2023/12/15 22:08:34;;;;;;;55.90;29.20;;;;;;;3.96;62.89;100756.12;231921;197;136959;-58
2023/12/15 22:13:44;;;;;;;54.10;28.10;;;;;;;3.93;63.06;100754.58;231741;198;136372;-59
2023/12/15 22:18:47;;;;;;;55.00;28.60;;;;;;;3.88;63.14;100755.30;231828;198;149980;-57
2023/12/15 22:23:52;;;;;;;52.20;28.10;;;;;;;3.87;63.29;100753.73;231819;198;137799;-57
2023/12/15 22:28:55;;;;;;;54.90;28.40;;;;;;;3.81;63.36;100758.14;232358;204;137225;-57
2023/12/15 22:33:59;;;;;;;52.80;26.80;;;;;;;3.75;63.54;100777.69;232130;201;150166;-59
2023/12/15 22:39:02;;;;;;;54.00;27.70;;;;;;;3.74;63.73;100783.30;232175;202;137521;-57
2023/12/15 22:44:05;;;;;;;50.00;27.60;;;;;;;3.70;63.94;100779.48;232137;198;136682;-58
2023/12/15 22:49:09;;;;;;;50.50;26.60;;;;;;;3.71;63.95;100780.69;232273;203;149613;-58
2023/12/15 22:54:12;;;;;;;49.40;26.00;;;;;;;3.66;64.10;100785.11;232215;204;136404;-58
2023/12/15 22:59:15;;;;;;;43.90;22.40;;;;;;;3.64;64.14;100785.83;232014;197;136396;-58
2023/12/15 23:04:18;;;;;;;48.30;25.40;;;;;;;3.63;64.24;100772.84;232317;200;150854;-57
2023/12/15 23:09:22;;;;;;;47.40;25.90;;;;;;;3.61;64.30;100766.36;232282;201;137727;-58
2023/12/15 23:14:25;;;;;;;42.70;24.60;;;;;;;3.60;64.38;100758.46;232292;204;138708;-59